Time;durP1;ratioP1;P1;durP2;ratioP2;P2;SDS_P1;SDS_P2;PMS_P1;PMS_P2;Temp;Humidity;BMP_temperature;BMP_pressure;BME280_temperature;BME280_humidity;BME280_pressure;Samples;Min_cycle;Max_cycle;Signal;HPM_P1;HPM_P2
2021/09/04 00:01:01;;;;;;;34.03;24.08;;;15.90;99.90;;;;;;4990330;28;20286;-87
2021/09/04 00:03:27;;;;;;;32.72;23.50;;;15.90;99.90;;;;;;4989254;28;20282;-87
2021/09/04 00:05:54;;;;;;;34.50;23.92;;;15.80;99.90;;;;;;4991004;28;20198;-88
2021/09/04 00:08:21;;;;;;;32.97;23.60;;;15.90;99.90;;;;;;4991402;28;20711;-88
2021/09/04 00:10:48;;;;;;;33.00;23.95;;;15.80;99.90;;;;;;4991603;28;20234;-88
2021/09/04 00:13:15;;;;;;;34.07;23.00;;;15.80;99.90;;;;;;4990547;28;20195;-88
2021/09/04 00:15:42;;;;;;;36.75;23.63;;;15.80;99.90;;;;;;4991667;28;20884;-88
2021/09/04 00:18:11;;;;;;;34.35;23.98;;;15.70;99.90;;;;;;4991352;28;20711;-88
2021/09/04 00:20:37;;;;;;;34.88;23.35;;;15.70;99.90;;;;;;4990042;28;20654;-88
2021/09/04 00:23:04;;;;;;;39.95;23.98;;;15.70;99.90;;;;;;4983257;28;20290;-89
2021/09/04 00:25:31;;;;;;;37.72;24.52;;;15.60;99.90;;;;;;4984619;28;20202;-88
2021/09/04 00:27:58;;;;;;;39.43;24.77;;;15.60;99.90;;;;;;4988746;28;20199;-88
2021/09/04 00:30:25;;;;;;;32.53;22.40;;;15.60;99.90;;;;;;4992633;28;20199;-87
2021/09/04 00:32:52;;;;;;;35.70;23.30;;;15.60;99.90;;;;;;4996236;28;20214;-88
2021/09/04 00:35:20;;;;;;;33.45;23.45;;;15.50;99.90;;;;;;4995919;28;20219;-88
2021/09/04 00:37:47;;;;;;;35.92;23.95;;;15.50;99.90;;;;;;4989754;28;20207;-88
2021/09/04 00:40:14;;;;;;;34.35;23.65;;;15.50;99.90;;;;;;4986324;28;20206;-88
2021/09/04 00:42:42;;;;;;;38.63;23.77;;;15.50;99.90;;;;;;4989080;28;20285;-88
2021/09/04 00:45:09;;;;;;;35.33;24.42;;;15.50;99.90;;;;;;4995665;28;20275;-88
2021/09/04 00:47:36;;;;;;;34.83;23.98;;;15.40;99.90;;;;;;4997158;28;20282;-88
2021/09/04 00:50:04;;;;;;;32.80;23.73;;;15.50;99.90;;;;;;4991882;28;20222;-89
2021/09/04 00:52:32;;;;;;;35.90;23.83;;;15.40;99.90;;;;;;4989622;28;20597;-88
2021/09/04 00:54:59;;;;;;;41.13;23.80;;;15.30;99.90;;;;;;4990293;28;20229;-88
2021/09/04 00:57:26;;;;;;;37.80;24.07;;;15.30;99.90;;;;;;4991012;28;20209;-88
2021/09/04 00:59:53;;;;;;;33.13;23.70;;;15.30;99.90;;;;;;4986461;28;20285;-89
2021/09/04 01:02:20;;;;;;;33.67;24.80;;;15.30;99.90;;;;;;4989597;28;20194;-89
2021/09/04 01:04:47;;;;;;;37.33;23.57;;;15.20;99.90;;;;;;4990231;28;20293;-87
2021/09/04 01:07:14;;;;;;;36.97;25.15;;;15.20;99.90;;;;;;4991206;28;20243;-89
2021/09/04 01:09:42;;;;;;;41.97;24.53;;;15.20;99.90;;;;;;4990182;28;20699;-88
2021/09/04 01:12:10;;;;;;;36.30;24.40;;;15.10;99.90;;;;;;4990809;28;20566;-88
2021/09/04 01:14:36;;;;;;;39.17;23.50;;;15.10;99.90;;;;;;4989739;28;20191;-88
2021/09/04 01:17:04;;;;;;;40.80;24.38;;;15.10;99.90;;;;;;4991403;28;20201;-88
2021/09/04 01:19:31;;;;;;;34.03;21.97;;;15.10;99.90;;;;;;4991794;28;20195;-88
2021/09/04 01:21:58;;;;;;;36.65;24.00;;;15.00;99.90;;;;;;4993825;28;20291;-88
2021/09/04 01:24:25;;;;;;;37.10;23.57;;;15.00;99.90;;;;;;4992230;28;20199;-87
2021/09/04 01:26:54;;;;;;;38.03;23.87;;;15.00;99.90;;;;;;4990055;28;20291;-88
2021/09/04 01:29:21;;;;;;;42.53;24.67;;;14.90;99.90;;;;;;4991332;28;20235;-88
2021/09/04 01:31:48;;;;;;;44.10;23.33;;;14.90;99.90;;;;;;4995076;28;20194;-88
2021/09/04 01:34:15;;;;;;;38.97;23.87;;;14.90;99.90;;;;;;4992913;28;20895;-88
2021/09/04 01:36:42;;;;;;;39.77;23.77;;;14.90;99.90;;;;;;4990549;28;20230;-89
2021/09/04 01:39:10;;;;;;;39.57;23.93;;;14.80;99.90;;;;;;4983496;28;20628;-89
2021/09/04 01:41:40;;;;;;;36.87;23.30;;;14.80;99.90;;;;;;4993672;28;20226;-89
2021/09/04 01:44:08;;;;;;;37.77;24.07;;;14.80;99.90;;;;;;4994157;28;20301;-88
2021/09/04 01:46:35;;;;;;;38.65;24.05;;;14.90;99.90;;;;;;4996001;28;20837;-88
2021/09/04 01:49:03;;;;;;;37.80;23.23;;;14.90;99.90;;;;;;4994686;28;20218;-87
2021/09/04 01:51:30;;;;;;;41.67;23.95;;;14.80;99.90;;;;;;4992596;28;20195;-88
2021/09/04 01:53:57;;;;;;;37.07;23.77;;;14.80;99.90;;;;;;4992054;28;20282;-87
2021/09/04 01:56:24;;;;;;;37.10;24.10;;;14.80;99.90;;;;;;4991304;28;20207;-86
2021/09/04 01:58:52;;;;;;;35.45;24.13;;;14.80;99.90;;;;;;4992908;28;20640;-86
2021/09/04 02:01:20;;;;;;;35.47;22.70;;;14.80;99.90;;;;;;4994192;28;20203;-87
2021/09/04 02:03:47;;;;;;;38.87;22.97;;;14.80;99.90;;;;;;4992790;28;20203;-88
2021/09/04 02:06:14;;;;;;;38.03;24.10;;;14.70;99.90;;;;;;4991592;28;20202;-87
2021/09/04 02:08:41;;;;;;;37.80;24.93;;;14.70;99.90;;;;;;4986209;28;20207;-88
2021/09/04 02:11:08;;;;;;;41.73;25.47;;;14.70;99.90;;;;;;4994804;28;20660;-88
2021/09/04 02:13:35;;;;;;;34.60;22.37;;;14.60;99.90;;;;;;4991892;28;20196;-89
2021/09/04 02:16:02;;;;;;;38.63;24.23;;;14.70;99.90;;;;;;4991587;28;20234;-89
2021/09/04 02:18:33;;;;;;;40.73;24.03;;;14.60;99.90;;;;;;4991162;28;20246;-90
2021/09/04 02:21:00;;;;;;;35.17;24.40;;;14.60;99.90;;;;;;4993023;28;20202;-89
2021/09/04 02:23:31;;;;;;;37.87;24.03;;;14.60;99.90;;;;;;4992350;28;20210;-88
2021/09/04 02:25:58;;;;;;;39.53;24.87;;;14.50;99.90;;;;;;4989283;28;20217;-90
2021/09/04 02:28:25;;;;;;;42.00;24.07;;;14.50;99.90;;;;;;4991427;28;20332;-89
2021/09/04 02:30:52;;;;;;;37.37;24.03;;;14.50;99.90;;;;;;4989483;28;20231;-90
2021/09/04 02:33:19;;;;;;;34.57;23.17;;;14.50;99.90;;;;;;4992889;28;20289;-88
2021/09/04 02:35:47;;;;;;;38.17;24.40;;;14.50;99.90;;;;;;4986066;28;20290;-89
2021/09/04 02:38:14;;;;;;;36.10;23.27;;;14.40;99.90;;;;;;4991275;28;20386;-87
2021/09/04 02:40:41;;;;;;;43.30;25.03;;;14.40;99.90;;;;;;4985289;28;20199;-89
2021/09/04 02:43:08;;;;;;;43.70;25.50;;;14.40;99.90;;;;;;4989131;28;20217;-88
2021/09/04 02:45:35;;;;;;;36.20;23.90;;;14.30;99.90;;;;;;4988719;28;20729;-88
2021/09/04 02:48:02;;;;;;;35.20;23.80;;;14.30;99.90;;;;;;4988944;28;20654;-87
2021/09/04 02:50:29;;;;;;;41.03;25.13;;;14.30;99.90;;;;;;4993452;28;20663;-88
2021/09/04 02:52:58;;;;;;;40.03;25.10;;;14.30;99.90;;;;;;4989759;28;20196;-88
2021/09/04 02:55:25;;;;;;;42.53;25.50;;;14.30;99.90;;;;;;4992144;28;20206;-88
2021/09/04 02:57:52;;;;;;;41.50;24.53;;;14.20;99.90;;;;;;4990281;28;20717;-88
2021/09/04 03:00:19;;;;;;;42.53;24.97;;;14.20;99.90;;;;;;4989214;28;20286;-88
2021/09/04 03:02:48;;;;;;;41.93;25.97;;;14.20;99.90;;;;;;4992850;28;20657;-86
2021/09/04 03:05:15;;;;;;;43.80;26.13;;;14.20;99.90;;;;;;4992917;28;20230;-87
2021/09/04 03:07:42;;;;;;;41.67;24.67;;;14.10;99.90;;;;;;4991015;28;20192;-88
2021/09/04 03:10:12;;;;;;;40.47;25.43;;;14.10;99.90;;;;;;4988619;28;20219;-88
2021/09/04 03:12:40;;;;;;;40.80;24.77;;;14.10;99.90;;;;;;4990663;28;20195;-89
2021/09/04 03:15:08;;;;;;;44.03;25.63;;;14.00;99.90;;;;;;4994180;28;20194;-89
2021/09/04 03:17:34;;;;;;;44.17;25.27;;;14.00;99.90;;;;;;4990695;28;20210;-88
2021/09/04 03:20:02;;;;;;;41.43;27.10;;;14.00;99.90;;;;;;4987645;28;20215;-89
2021/09/04 03:22:32;;;;;;;43.57;26.67;;;13.90;99.90;;;;;;4992753;28;20206;-88
2021/09/04 03:24:59;;;;;;;47.23;25.93;;;13.90;99.90;;;;;;4982119;28;20199;-89
2021/09/04 03:27:38;;;;;;;49.07;26.20;;;13.90;99.90;;;;;;4989260;28;20652;-87
2021/09/04 03:30:10;;;;;;;43.93;26.10;;;13.90;99.90;;;;;;4988791;28;20834;-87
2021/09/04 03:32:40;;;;;;;46.97;27.07;;;13.80;99.90;;;;;;4989809;28;20199;-88
2021/09/04 03:35:07;;;;;;;48.03;27.60;;;13.80;99.90;;;;;;4995149;28;20243;-89
2021/09/04 03:37:34;;;;;;;44.47;27.23;;;13.80;99.90;;;;;;4996459;28;20676;-87
2021/09/04 03:40:01;;;;;;;49.93;28.67;;;13.80;99.90;;;;;;4998152;28;20238;-90
2021/09/04 03:42:30;;;;;;;50.00;29.60;;;13.80;99.90;;;;;;4986859;28;20199;-90
2021/09/04 03:44:57;;;;;;;43.93;25.67;;;13.70;99.90;;;;;;4990638;28;20214;-89
2021/09/04 03:47:26;;;;;;;44.60;28.00;;;13.80;99.90;;;;;;4992509;28;20222;-87
2021/09/04 03:50:02;;;;;;;53.30;28.20;;;13.80;99.90;;;;;;4995093;28;20258;-87
2021/09/04 03:52:29;;;;;;;49.97;27.83;;;13.70;99.90;;;;;;4988862;28;20221;-89
2021/09/04 03:54:56;;;;;;;50.90;28.83;;;13.70;99.90;;;;;;4992773;28;20194;-88
2021/09/04 03:57:23;;;;;;;45.20;28.27;;;13.70;99.90;;;;;;4987295;28;20682;-89
2021/09/04 03:59:53;;;;;;;47.80;28.40;;;13.70;99.90;;;;;;4988713;28;20718;-87
2021/09/04 04:02:23;;;;;;;49.87;28.57;;;13.70;99.90;;;;;;4991770;28;20201;-89
2021/09/04 04:04:50;;;;;;;53.03;28.93;;;13.60;99.90;;;;;;4993339;28;20231;-91
2021/09/04 04:07:18;;;;;;;50.50;26.93;;;13.60;99.90;;;;;;4994419;28;20195;-88
2021/09/04 04:09:45;;;;;;;51.43;29.87;;;13.60;99.90;;;;;;4992440;28;20317;-89
2021/09/04 04:12:12;;;;;;;45.87;27.73;;;13.50;99.90;;;;;;4993540;28;20195;-89
2021/09/04 04:14:40;;;;;;;49.03;29.43;;;13.50;99.90;;;;;;4991167;28;20566;-89
2021/09/04 04:17:08;;;;;;;51.67;28.40;;;13.50;99.90;;;;;;4980297;28;20242;-88
2021/09/04 04:19:35;;;;;;;48.40;28.73;;;13.40;99.90;;;;;;4990437;28;20261;-87
2021/09/04 04:22:03;;;;;;;52.30;30.87;;;13.40;99.90;;;;;;4988855;28;20372;-89
2021/09/04 04:24:31;;;;;;;52.07;30.37;;;13.40;99.90;;;;;;4985104;28;20206;-88
2021/09/04 04:27:01;;;;;;;64.30;31.40;;;13.30;99.90;;;;;;4989348;28;20198;-86
2021/09/04 04:29:28;;;;;;;54.83;31.50;;;13.30;99.90;;;;;;4988308;28;20217;-87
2021/09/04 04:31:55;;;;;;;55.70;30.77;;;13.30;99.90;;;;;;4992209;28;20202;-89
2021/09/04 04:34:23;;;;;;;55.37;31.43;;;13.30;99.90;;;;;;4992530;28;20205;-90
2021/09/04 04:37:00;;;;;;;54.53;31.27;;;13.30;99.90;;;;;;4991889;28;22474;-90
2021/09/04 04:39:27;;;;;;;58.10;33.27;;;13.30;99.90;;;;;;4989906;28;20226;-89
2021/09/04 04:41:54;;;;;;;55.37;32.47;;;13.20;99.90;;;;;;4991199;28;20201;-89
2021/09/04 04:44:21;;;;;;;63.13;32.67;;;13.20;99.90;;;;;;4989764;28;20207;-88
2021/09/04 04:46:50;;;;;;;58.63;31.67;;;13.20;99.90;;;;;;4986089;28;20201;-88
2021/09/04 04:49:18;;;;;;;62.57;32.97;;;13.20;99.90;;;;;;4990331;28;20742;-88
2021/09/04 04:51:53;;;;;;;57.73;32.00;;;13.20;99.90;;;;;;4994041;28;20278;-89
2021/09/04 04:54:20;;;;;;;58.17;32.13;;;13.20;99.90;;;;;;4991720;28;20213;-89
2021/09/04 04:56:47;;;;;;;59.23;31.70;;;13.20;99.90;;;;;;4994410;28;20215;-88
2021/09/04 04:59:14;;;;;;;59.93;31.63;;;13.10;99.90;;;;;;4991510;28;20285;-88
2021/09/04 05:01:41;;;;;;;59.93;33.33;;;13.10;99.90;;;;;;4993966;28;20200;-88
2021/09/04 05:04:09;;;;;;;56.30;31.37;;;13.10;99.90;;;;;;4993466;28;20230;-88
2021/09/04 05:06:45;;;;;;;60.17;31.30;;;13.10;99.90;;;;;;4996492;28;20248;-89
2021/09/04 05:09:14;;;;;;;71.43;32.43;;;13.10;99.90;;;;;;4994338;28;20215;-86
2021/09/04 05:11:43;;;;;;;67.50;32.90;;;13.10;99.90;;;;;;4997790;28;20230;-89
2021/09/04 05:14:10;;;;;;;61.00;32.50;;;13.00;99.90;;;;;;4995718;28;20234;-89
2021/09/04 05:16:39;;;;;;;61.73;34.20;;;13.10;99.90;;;;;;4993163;28;20886;-88
2021/09/04 05:19:07;;;;;;;64.27;33.00;;;13.10;99.90;;;;;;4998109;28;20575;-88
2021/09/04 05:21:38;;;;;;;65.83;36.73;;;13.10;99.90;;;;;;5000554;28;20218;-87
2021/09/04 05:24:09;;;;;;;65.00;34.17;;;13.10;99.90;;;;;;4994031;28;20230;-86
2021/09/04 05:26:41;;;;;;;68.47;34.07;;;13.10;99.90;;;;;;4988458;28;20215;-85
2021/09/04 05:29:09;;;;;;;64.30;36.07;;;13.20;99.90;;;;;;4989884;28;20225;-89
2021/09/04 05:31:39;;;;;;;68.20;35.60;;;13.20;99.90;;;;;;4991165;28;20269;-89
2021/09/04 05:34:05;;;;;;;72.23;37.83;;;13.20;99.90;;;;;;4993122;28;20191;-90
2021/09/04 05:36:33;;;;;;;70.10;39.20;;;13.20;99.90;;;;;;4993058;28;20289;-90
2021/09/04 05:39:00;;;;;;;73.20;38.03;;;13.30;99.90;;;;;;4985118;28;20219;-88
2021/09/04 05:41:27;;;;;;;78.83;38.03;;;13.30;99.90;;;;;;4992480;28;20203;-89
2021/09/04 05:43:56;;;;;;;78.73;37.80;;;13.40;99.90;;;;;;4988855;28;20876;-88
2021/09/04 05:46:23;;;;;;;73.30;40.57;;;13.40;99.90;;;;;;4992404;28;20222;-88
2021/09/04 05:48:50;;;;;;;80.20;38.97;;;13.40;99.90;;;;;;4989690;28;20691;-88
2021/09/04 05:51:17;;;;;;;79.70;40.83;;;13.40;99.90;;;;;;4991864;28;20314;-86
2021/09/04 05:53:46;;;;;;;81.37;39.47;;;13.50;99.90;;;;;;4991318;28;20270;-88
2021/09/04 05:56:13;;;;;;;79.13;40.20;;;13.50;99.90;;;;;;4989585;28;20219;-87
2021/09/04 05:58:43;;;;;;;80.67;39.00;;;13.50;99.90;;;;;;4982237;28;20218;-86
2021/09/04 06:01:18;;;;;;;80.10;39.50;;;13.50;99.90;;;;;;4983537;28;20211;-87
2021/09/04 06:03:45;;;;;;;85.47;40.57;;;13.60;99.90;;;;;;4983889;28;21514;-87
2021/09/04 06:06:15;;;;;;;81.93;41.03;;;13.60;99.90;;;;;;4989131;28;20218;-88
2021/09/04 06:08:43;;;;;;;85.67;42.30;;;13.60;99.90;;;;;;4992310;28;20676;-87
2021/09/04 06:11:12;;;;;;;87.63;42.73;;;13.60;99.90;;;;;;4992629;28;20222;-86
2021/09/04 06:13:44;;;;;;;85.37;42.33;;;13.60;99.90;;;;;;4984157;28;20222;-86
2021/09/04 06:16:12;;;;;;;78.73;37.97;;;13.60;99.90;;;;;;4993327;28;20810;-86
2021/09/04 06:18:41;;;;;;;80.67;40.93;;;13.70;99.90;;;;;;4989508;28;20283;-86
2021/09/04 06:21:08;;;;;;;84.93;45.00;;;13.70;99.90;;;;;;4992342;28;20199;-85
2021/09/04 06:23:35;;;;;;;85.73;42.20;;;13.60;99.90;;;;;;4992201;28;20192;-86
2021/09/04 06:26:04;;;;;;;88.27;41.27;;;13.60;99.90;;;;;;4994079;28;20273;-86
2021/09/04 06:28:34;;;;;;;86.00;41.70;;;13.70;99.90;;;;;;4984501;28;20227;-86
2021/09/04 06:31:01;;;;;;;85.93;40.67;;;13.70;99.90;;;;;;4986509;28;20281;-84
2021/09/04 06:33:30;;;;;;;88.47;43.43;;;13.70;99.90;;;;;;4988467;28;20215;-86
2021/09/04 06:36:23;;;;;;;81.43;42.17;;;13.70;99.90;;;;;;4983366;28;20277;-86
2021/09/04 06:38:53;;;;;;;83.63;43.87;;;13.70;99.90;;;;;;4988329;28;20213;-89
2021/09/04 06:41:22;;;;;;;92.18;48.17;;;13.60;99.90;;;;;;4992824;28;20492;-90
2021/09/04 06:43:50;;;;;;;81.07;42.87;;;13.70;99.90;;;;;;4992663;28;20195;-90
2021/09/04 06:46:17;;;;;;;88.37;44.43;;;13.70;99.90;;;;;;4993302;28;20222;-90
2021/09/04 06:48:50;;;;;;;80.93;43.23;;;13.70;99.90;;;;;;4990378;28;20279;-90
2021/09/04 06:51:26;;;;;;;81.83;44.17;;;13.70;99.90;;;;;;4987279;28;20657;-90
2021/09/04 06:53:53;;;;;;;83.40;41.63;;;13.70;99.90;;;;;;4992091;28;20199;-89
2021/09/04 06:56:20;;;;;;;85.60;43.37;;;13.70;99.90;;;;;;4992163;28;20222;-88
2021/09/04 06:58:56;;;;;;;79.57;40.73;;;13.70;99.90;;;;;;4990613;28;20215;-88
2021/09/04 07:01:35;;;;;;;85.60;43.23;;;13.70;99.90;;;;;;4995886;28;20265;-89
2021/09/04 07:04:02;;;;;;;76.77;41.60;;;13.80;99.90;;;;;;4981064;28;20249;-91
2021/09/04 07:06:32;;;;;;;78.97;42.37;;;13.70;99.90;;;;;;4981716;28;20649;-90
2021/09/04 07:08:59;;;;;;;89.10;43.03;;;13.70;99.90;;;;;;4982207;28;20206;-88
2021/09/04 07:11:26;;;;;;;86.33;43.20;;;13.80;99.90;;;;;;4981572;28;20776;-89
2021/09/04 07:13:56;;;;;;;77.70;41.73;;;13.70;99.90;;;;;;4981932;28;20453;-89
2021/09/04 07:16:23;;;;;;;84.53;42.87;;;13.70;99.90;;;;;;4981679;28;20207;-91
2021/09/04 07:18:50;;;;;;;87.53;44.07;;;13.70;99.90;;;;;;4982348;28;20302;-88
2021/09/04 07:21:18;;;;;;;82.10;41.40;;;13.70;99.90;;;;;;4982620;28;20199;-89
2021/09/04 07:23:50;;;;;;;85.00;41.70;;;13.70;99.90;;;;;;4980833;28;20219;-89
2021/09/04 07:26:17;;;;;;;82.43;42.03;;;13.60;99.90;;;;;;4982097;28;20253;-88
2021/09/04 07:28:44;;;;;;;82.17;43.70;;;13.60;99.90;;;;;;4983820;28;20242;-88
2021/09/04 07:31:12;;;;;;;89.07;40.23;;;13.70;99.90;;;;;;4980816;28;20325;-90
2021/09/04 07:33:41;;;;;;;81.83;42.83;;;13.70;99.90;;;;;;4982061;28;20684;-89
2021/09/04 07:36:10;;;;;;;85.83;42.93;;;13.70;99.90;;;;;;4981343;28;20665;-90
2021/09/04 07:38:37;;;;;;;86.80;42.90;;;13.80;99.90;;;;;;4982709;28;20207;-90
2021/09/04 07:41:05;;;;;;;88.27;41.67;;;13.70;99.90;;;;;;4983448;28;20729;-88
2021/09/04 07:43:34;;;;;;;83.57;42.50;;;13.90;99.90;;;;;;4980510;28;20205;-88
2021/09/04 07:46:13;;;;;;;87.30;41.73;;;13.80;99.90;;;;;;4980039;28;20238;-89
2021/09/04 07:48:45;;;;;;;86.50;46.67;;;13.80;99.90;;;;;;4978646;28;20195;-89
2021/09/04 07:51:15;;;;;;;79.07;39.93;;;13.80;99.90;;;;;;4981488;28;20317;-87
2021/09/04 07:53:42;;;;;;;85.83;44.30;;;13.80;99.90;;;;;;4980867;28;20202;-89
2021/09/04 07:56:20;;;;;;;86.80;43.83;;;13.80;99.90;;;;;;4992241;28;20262;-88
2021/09/04 07:58:50;;;;;;;89.73;42.20;;;13.90;99.90;;;;;;4988587;28;20735;-89
2021/09/04 08:01:26;;;;;;;82.30;42.97;;;13.90;99.90;;;;;;4988077;28;20199;-88
2021/09/04 08:03:53;;;;;;;81.47;42.17;;;13.90;99.90;;;;;;4979740;28;20310;-85
2021/09/04 08:06:21;;;;;;;84.57;43.60;;;14.00;99.90;;;;;;4976438;28;20338;-88
2021/09/04 08:08:51;;;;;;;85.97;44.63;;;14.10;99.90;;;;;;4977690;28;20202;-89
2021/09/04 08:11:20;;;;;;;84.33;44.00;;;14.10;99.90;;;;;;4978688;28;20304;-87
2021/09/04 08:13:47;;;;;;;84.30;41.57;;;14.10;99.90;;;;;;4978817;28;20206;-87
2021/09/04 08:16:15;;;;;;;78.60;40.07;;;14.20;99.90;;;;;;4980026;28;20199;-88
2021/09/04 08:18:42;;;;;;;82.77;41.70;;;14.20;99.90;;;;;;4989612;28;20614;-87
2021/09/04 08:21:09;;;;;;;90.60;42.60;;;14.10;99.90;;;;;;4976857;28;20230;-86
2021/09/04 08:23:36;;;;;;;87.30;40.87;;;14.20;99.90;;;;;;4981483;28;20289;-86
2021/09/04 08:26:03;;;;;;;75.67;40.23;;;14.20;99.90;;;;;;4979575;28;20742;-87
2021/09/04 08:28:31;;;;;;;76.40;39.33;;;14.40;99.90;;;;;;4981861;28;20205;-87
2021/09/04 08:30:58;;;;;;;76.97;39.53;;;14.50;99.90;;;;;;4975078;28;20262;-87
2021/09/04 08:33:26;;;;;;;78.30;39.70;;;14.50;99.90;;;;;;4975016;28;20199;-88
2021/09/04 08:35:53;;;;;;;85.70;43.10;;;14.50;99.90;;;;;;4975835;28;20612;-87
2021/09/04 08:38:28;;;;;;;83.53;44.83;;;14.40;99.90;;;;;;4976395;28;20226;-87
2021/09/04 08:40:56;;;;;;;86.37;43.03;;;14.30;99.90;;;;;;4973910;28;20206;-85
2021/09/04 08:43:23;;;;;;;88.13;44.23;;;14.20;99.90;;;;;;4970730;28;20302;-85
2021/09/04 08:45:53;;;;;;;84.90;42.37;;;14.30;99.90;;;;;;4972111;28;20211;-85
2021/09/04 08:48:25;;;;;;;88.43;44.70;;;14.20;99.90;;;;;;4977648;28;20302;-87
2021/09/04 08:50:55;;;;;;;83.43;42.87;;;14.30;99.90;;;;;;4966960;28;20226;-86
2021/09/04 08:53:26;;;;;;;88.67;44.10;;;14.30;99.90;;;;;;4974593;28;20293;-86
2021/09/04 08:55:53;;;;;;;90.23;40.47;;;14.30;99.90;;;;;;4970937;28;20221;-86
2021/09/04 08:58:26;;;;;;;88.33;45.07;;;14.50;99.90;;;;;;4958897;28;20340;-87
2021/09/04 09:00:55;;;;;;;88.37;46.00;;;14.40;99.90;;;;;;4979585;28;20198;-88
2021/09/04 09:03:26;;;;;;;82.90;41.17;;;14.40;99.90;;;;;;4974770;28;20203;-88
2021/09/04 09:05:55;;;;;;;87.70;42.30;;;14.50;99.90;;;;;;4975310;28;20226;-86
2021/09/04 09:08:24;;;;;;;83.97;42.83;;;14.40;99.90;;;;;;4978562;28;20226;-85
2021/09/04 09:11:00;;;;;;;84.10;41.20;;;14.40;99.90;;;;;;4974111;28;20210;-85
2021/09/04 09:13:28;;;;;;;79.70;41.80;;;14.50;99.90;;;;;;4977200;28;20290;-84
2021/09/04 09:15:57;;;;;;;83.17;41.20;;;14.60;99.90;;;;;;4976769;28;20206;-82
2021/09/04 09:18:27;;;;;;;85.00;41.20;;;14.70;99.90;;;;;;4977128;28;20257;-86
2021/09/04 09:21:00;;;;;;;79.57;42.60;;;14.70;99.90;;;;;;4974143;28;20622;-86
2021/09/04 09:23:31;;;;;;;85.27;41.90;;;14.90;99.90;;;;;;4978862;28;20203;-89
2021/09/04 09:26:08;;;;;;;84.10;44.43;;;14.50;99.90;;;;;;4976891;28;20322;-88
2021/09/04 09:28:39;;;;;;;85.97;42.70;;;14.60;99.90;;;;;;4979103;28;20730;-87
2021/09/04 09:31:18;;;;;;;85.13;41.10;;;14.60;99.90;;;;;;4976988;28;20219;-89
2021/09/04 09:33:49;;;;;;;82.70;42.03;;;14.70;99.90;;;;;;4977734;28;20227;-88
2021/09/04 09:36:24;;;;;;;86.53;42.60;;;14.60;99.90;;;;;;4973195;28;20302;-88
2021/09/04 09:38:59;;;;;;;94.23;45.30;;;14.80;99.90;;;;;;4976943;28;20284;-88
2021/09/04 09:41:26;;;;;;;79.10;41.47;;;14.70;99.90;;;;;;4978066;28;20301;-88
2021/09/04 09:43:53;;;;;;;82.27;42.73;;;14.90;99.90;;;;;;4977360;28;20719;-88
2021/09/04 09:46:22;;;;;;;72.67;38.63;;;14.90;99.90;;;;;;4978174;28;20207;-87
2021/09/04 09:48:49;;;;;;;72.18;38.40;;;15.00;99.90;;;;;;4980921;28;20198;-86
2021/09/04 09:51:19;;;;;;;65.73;36.47;;;15.20;99.90;;;;;;4980805;28;20231;-89
2021/09/04 09:53:46;;;;;;;74.27;38.33;;;15.20;99.90;;;;;;4980464;28;20218;-89
2021/09/04 09:56:14;;;;;;;67.50;39.77;;;15.30;99.90;;;;;;4985495;28;20214;-85
2021/09/04 09:58:41;;;;;;;70.80;38.78;;;15.20;99.90;;;;;;4990122;28;20562;-87
2021/09/04 10:01:09;;;;;;;69.67;38.73;;;15.00;99.90;;;;;;4982795;28;20203;-87
2021/09/04 10:03:39;;;;;;;70.20;38.85;;;15.00;99.90;;;;;;4976178;28;20231;-87
2021/09/04 10:06:07;;;;;;;84.20;42.93;;;14.90;99.90;;;;;;4991154;28;20598;-87
2021/09/04 10:08:34;;;;;;;71.60;39.37;;;15.00;99.90;;;;;;4987337;28;20199;-86
2021/09/04 10:11:05;;;;;;;73.83;36.30;;;15.00;99.90;;;;;;4988948;28;20576;-86
2021/09/04 10:13:32;;;;;;;71.10;38.63;;;15.10;99.90;;;;;;4986120;28;20811;-85
2021/09/04 10:15:59;;;;;;;69.47;40.40;;;15.20;99.90;;;;;;4978554;28;20258;-86
2021/09/04 10:18:30;;;;;;;65.00;36.97;;;15.20;99.90;;;;;;4979677;28;20215;-85
2021/09/04 10:21:07;;;;;;;67.90;39.70;;;15.20;99.90;;;;;;4979528;28;20216;-87
2021/09/04 10:23:41;;;;;;;72.28;39.90;;;15.10;99.90;;;;;;4979990;28;20222;-87
2021/09/04 10:26:42;;;;;;;69.53;39.83;;;15.10;99.90;;;;;;4981102;28;20199;-86
2021/09/04 10:29:15;;;;;;;69.55;40.13;;;15.20;99.90;;;;;;4906848;29;20233;-89
2021/09/04 10:31:57;;;;;;;71.38;37.78;;;15.10;99.90;;;;;;4903141;29;20679;-84
2021/09/04 10:34:29;;;;;;;69.97;38.53;;;15.30;99.90;;;;;;4941420;28;20325;-87
2021/09/04 10:37:00;;;;;;;63.97;37.40;;;15.40;99.90;;;;;;4983339;28;20198;-85
2021/09/04 10:39:48;;;;;;;66.80;38.63;;;15.40;99.90;;;;;;4980963;28;20234;-87
2021/09/04 10:42:16;;;;;;;65.00;37.00;;;15.50;99.90;;;;;;4980438;28;20206;-88
2021/09/04 10:44:45;;;;;;;61.75;38.47;;;15.40;99.90;;;;;;4980349;28;20303;-84
2021/09/04 10:47:12;;;;;;;62.88;37.38;;;15.50;99.90;;;;;;4982708;28;20741;-86
2021/09/04 10:49:41;;;;;;;62.17;38.40;;;15.50;99.90;;;;;;4981988;28;20209;-89
2021/09/04 10:52:10;;;;;;;63.08;37.88;;;15.60;99.90;;;;;;4984391;28;20234;-88
2021/09/04 10:54:58;;;;;;;66.10;38.05;;;15.60;99.90;;;;;;4981039;28;20203;-87
2021/09/04 10:57:25;;;;;;;66.18;38.72;;;15.60;99.90;;;;;;4981412;28;20206;-86
2021/09/04 11:00:07;;;;;;;63.55;36.33;;;15.70;99.90;;;;;;4974519;28;20314;-86
2021/09/04 11:02:46;;;;;;;59.45;36.38;;;15.80;99.90;;;;;;4991345;28;20573;-84
2021/09/04 11:05:40;;;;;;;61.25;36.47;;;16.00;99.90;;;;;;4984623;28;20199;-85
2021/09/04 11:08:10;;;;;;;61.45;39.20;;;15.80;99.90;;;;;;4988636;28;20199;-87
2021/09/04 11:10:39;;;;;;;63.10;37.58;;;15.80;99.90;;;;;;4991818;28;20195;-85
2021/09/04 11:13:22;;;;;;;61.72;37.72;;;16.00;99.90;;;;;;4991882;28;20314;-84
2021/09/04 11:15:49;;;;;;;59.55;37.92;;;16.00;99.90;;;;;;4980391;28;20245;-84
2021/09/04 11:18:20;;;;;;;53.25;37.53;;;16.10;99.90;;;;;;4986664;28;20519;-82
2021/09/04 11:20:48;;;;;;;54.38;33.67;;;16.50;99.90;;;;;;4993937;28;20277;-85
2021/09/04 11:23:25;;;;;;;54.08;35.40;;;16.70;99.90;;;;;;4986398;28;20195;-84
2021/09/04 11:25:52;;;;;;;53.55;33.33;;;16.70;99.90;;;;;;4985633;28;20211;-85
2021/09/04 11:28:30;;;;;;;52.05;36.55;;;16.90;99.90;;;;;;4988499;28;20592;-85
2021/09/04 11:30:57;;;;;;;55.95;34.17;;;16.70;99.90;;;;;;4989886;28;20209;-85
2021/09/04 11:33:24;;;;;;;51.08;34.60;;;16.70;99.90;;;;;;4990379;28;20584;-84
2021/09/04 11:35:52;;;;;;;60.65;37.47;;;16.60;99.90;;;;;;4992625;28;20197;-85
2021/09/04 11:38:19;;;;;;;56.13;35.78;;;16.60;99.90;;;;;;4987448;28;20642;-83
2021/09/04 11:40:47;;;;;;;54.65;34.25;;;16.60;99.90;;;;;;4990812;28;20234;-82
2021/09/04 11:43:16;;;;;;;54.78;37.30;;;16.70;99.90;;;;;;4988026;28;20272;-83
2021/09/04 11:45:44;;;;;;;55.28;39.17;;;16.50;99.90;;;;;;4989372;28;20199;-83
2021/09/04 11:48:14;;;;;;;53.80;36.20;;;16.50;99.90;;;;;;4986270;28;20666;-86
2021/09/04 11:50:41;;;;;;;53.97;35.67;;;16.60;99.90;;;;;;4984370;28;20210;-86
2021/09/04 11:53:11;;;;;;;56.47;37.33;;;16.60;99.90;;;;;;4988925;28;20281;-86
2021/09/04 11:55:39;;;;;;;57.88;38.15;;;16.90;99.90;;;;;;4992820;28;20286;-84
2021/09/04 11:58:11;;;;;;;55.33;37.50;;;16.80;99.90;;;;;;4987531;28;20216;-84
2021/09/04 12:00:40;;;;;;;56.80;36.78;;;17.00;99.90;;;;;;4987222;28;20641;-85
2021/09/04 12:03:08;;;;;;;51.17;32.78;;;17.20;99.90;;;;;;4988799;28;20701;-84
2021/09/04 12:05:37;;;;;;;54.92;36.05;;;17.40;99.90;;;;;;4985025;28;20199;-84
2021/09/04 12:08:06;;;;;;;51.50;33.80;;;17.30;99.90;;;;;;4974246;28;20195;-85
2021/09/04 12:10:36;;;;;;;51.33;35.88;;;17.40;99.90;;;;;;4973493;28;20596;-84
2021/09/04 12:13:05;;;;;;;49.20;35.78;;;17.50;99.90;;;;;;4976456;28;20226;-84
2021/09/04 12:15:34;;;;;;;51.78;33.92;;;17.80;99.90;;;;;;4974292;28;20206;-83
2021/09/04 12:18:03;;;;;;;50.22;36.60;;;17.90;99.90;;;;;;4977533;28;20383;-84
2021/09/04 12:20:33;;;;;;;47.72;33.83;;;17.50;99.90;;;;;;4972134;28;20234;-84
2021/09/04 12:23:13;;;;;;;49.40;37.20;;;17.50;99.90;;;;;;4974580;28;20205;-84
2021/09/04 12:25:39;;;;;;;49.63;33.13;;;17.20;99.90;;;;;;4973787;28;20209;-84
2021/09/04 12:28:08;;;;;;;50.83;34.25;;;17.60;99.90;;;;;;4974224;28;20289;-84
2021/09/04 12:30:56;;;;;;;47.40;32.47;;;17.80;99.90;;;;;;4972642;28;20202;-83
2021/09/04 12:33:23;;;;;;;50.45;34.72;;;18.20;99.90;;;;;;4973065;28;20230;-83
2021/09/04 12:35:52;;;;;;;48.00;31.20;;;18.40;99.90;;;;;;4973449;28;20202;-83
2021/09/04 12:38:20;;;;;;;45.47;31.77;;;18.50;99.90;;;;;;4973646;28;20209;-82